Thunder radar more information blitzortung!


Rain radar more information rain snow radar


Besuchen Sie unsere anderen Wetter Stationen:

Template documentation
and downloads

And another site


Sie finden unser Wetter-Infos auch auf:

warn

European Weather Network

WeatherCloud

Weather Underground

AWEKAS

HAMweather, WeatherForYou, PWS Weather

wettercom

Neuwetter

Wetter Netzwerk Deutschland



METAR-Meldungen aus der Umgebung

   
EDDW - Bremen
Aktualisierung: 23-04-2018 20:50
Klar  
Klar  
   Wind: WNW 16.7 km/h
Wind: WNW 16.7 km/h
Temperatur: 12°C
Taupunkt: 7°C
Luftfeuchte: 72%
Luftdruck: 1014 hPa
Sichtbarkeit: More than 10 km
Bewölkung: Klar
EDDW 231850Z 29009KT CAVOK 12/07 Q1014 BECMG 23006KT
EDDT - Berlin
Aktualisierung: 23-04-2018 20:50
Klar  
Klar  
   Wind: WNW 7.4 km/h
Wind: WNW 7.4 km/h
Temperatur: 16°C
Taupunkt: 7°C
Luftfeuchte: 55%
Luftdruck: 1013 hPa
Sichtbarkeit: More than 10 km
Bewölkung: Klar
EDDT 231850Z 29004KT CAVOK 16/07 Q1013 NOSIG
EDDF - Frankfurt
Aktualisierung: 23-04-2018 20:50
Klar  
Klar  
   Wind: WSW 14.8 km/h<br />Gust to 14.8 km/h
Wind: WSW 14.8 km/h
Gust to 14.8 km/h
Temperatur: 18°C
Taupunkt: 8°C
Luftfeuchte: 52%
Luftdruck: 1015 hPa
Sichtbarkeit: More than 10 km
Bewölkung: Klar
EDDF 231850Z 25008G18KT CAVOK 18/08 Q1015 NOSIG
EDDM - Mnchen
Aktualisierung: 23-04-2018 20:50
Klar  
Klar  
   Wind: WSW 20.4 km/h
Wind: WSW 20.4 km/h
Temperatur: 16°C
Taupunkt: 11°C
Luftfeuchte: 72%
Luftdruck: 1018 hPa
Sichtbarkeit: More than 10 km
Bewölkung: Klar
EDDM 231850Z 25011KT CAVOK 16/11 Q1018 NOSIG
EDDH - Hamburg
Aktualisierung: 23-04-2018 20:50
Klar  
Klar  
   Wind: WNW 13 km/h
Wind: WNW 13 km/h
Temperatur: 11°C
Taupunkt: 5°C
Luftfeuchte: 67%
Luftdruck: 1014 hPa
Sichtbarkeit: More than 10 km
Bewölkung: Klar
EDDH 231850Z 29007KT CAVOK 11/05 Q1014 BECMG 24006KT
EDDL - Dsseldorf
Aktualisierung: 23-04-2018 20:50
Klar  
Klar  
   Wind: Westen 3.7 km/h
Wind: Westen 3.7 km/h
Temperatur: 14°C
Taupunkt: 8°C
Luftfeuchte: 67%
Luftdruck: 1016 hPa
Sichtbarkeit: More than 10 km
Bewölkung: Klar
EDDL 231850Z 28002KT CAVOK 14/08 Q1016 NOSIG

Script entwickelt von  Saratoga-weather.org Angepasst für das Template von  Weerstation Leuven

Von uns verwendete Ausrüstung:

Wetterstation
Davis VP2

Wetterprogramm
Meteobridge

WetterComputer
Asus WL -330N3G

Davis VP2

Meteobridge

Asus WL -330N3G